Waf_motion — 4RBK — position and weather

sailwx.info

Track history (hours):
 
Tides and Currents Weather Stations Pressure Air Temp Water Temp Dewpoint Dewpoint Depression Visibility Wind Speed Wind Dir Waves Ship Positions

Waf_motion

Last reported at 2017-Apr-07 07:20 UTC. Time now 2017-Apr-30 07:08 UTC.
Position N 05°17' W 004°01'.
Warning: this ship's position is 22 days out of date.

Length 140 m; draft 6.8 m.

Type: Ship (hazmat cat A). MMSI: 417222324.

Date/timePositionNaut miles runAvg speedWind from/ knotsBaromVisibWave heightAir tempDewpointWater temp
2017-Apr-07 07:20N 05°17' W 004°01'0 0.0
2017-Apr-07 06:50N 05°17' W 004°01'0 0.0
2017-Apr-06 17:08N 05°17' W 004°01'0 0.0
2017-Apr-06 16:56N 05°17' W 004°01'0 0.0
2017-Apr-06 11:02N 05°17' W 004°01'0 0.0
2017-Apr-06 10:32N 05°17' W 004°01'0 0.0
2017-Apr-06 09:02N 05°17' W 004°01'0 0.0
2017-Apr-06 00:38N 05°17' W 004°01'0 0.0
2017-Apr-06 00:29N 05°17' W 004°01'0 0.2
2017-Apr-06 00:00N 05°17' W 004°01'2 3.8
2017-Apr-05 23:30N 05°15' W 004°00'2 3.6
2017-Apr-05 22:58N 05°13' W 003°59'4 0.3
2017-Apr-05 08:57N 05°13' W 004°03'  
2017-Mar-31 22:06N 18°54' W 018°02'1213.7
2017-Mar-31 21:14N 19°06' W 018°03'514.1
2017-Mar-31 20:51N 19°12' W 018°03'514.1
2017-Mar-31 20:29N 19°17' W 018°03'714.3
2017-Mar-31 20:00N 19°24' W 018°03'51213.5
2017-Mar-30 06:09N 27°13' W 014°18'2514.5
2017-Mar-30 04:27N 27°31' W 014°00'1314.2
2017-Mar-30 03:33N 27°40' W 013°50'1614.2
2017-Mar-30 02:26N 27°51' W 013°36'1213.9
2017-Mar-30 01:33N 27°59' W 013°26'1513.9
2017-Mar-30 00:30N 28°11' W 013°18'1314.0
2017-Mar-29 23:33N 28°23' W 013°11'2814.0
2017-Mar-29 21:33N 28°48' W 012°56'1514.4
2017-Mar-29 20:31N 29°01' W 012°48'  
Track history (hours):
 
Tides and Currents Weather Stations Pressure Air Temp Water Temp Dewpoint Dewpoint Depression Visibility Wind Speed Wind Dir Waves Ship Positions

Waf_motion

Last reported at 2017-Apr-07 07:20 UTC. Time now 2017-Apr-30 07:08 UTC.
Position N 05°17' W 004°01'.
Warning: this ship's position is 22 days out of date.

Length 140 m; draft 6.8 m.

Type: Ship (hazmat cat A). MMSI: 417222324.

Date/timePositionNaut miles runAvg speedWind from/ knotsBaromVisibWave heightAir tempDewpointWater temp
2017-Apr-07 07:20N 05°17' W 004°01'0 0.0
2017-Apr-07 06:50N 05°17' W 004°01'0 0.0
2017-Apr-06 17:08N 05°17' W 004°01'0 0.0
2017-Apr-06 16:56N 05°17' W 004°01'0 0.0
2017-Apr-06 11:02N 05°17' W 004°01'0 0.0
2017-Apr-06 10:32N 05°17' W 004°01'0 0.0
2017-Apr-06 09:02N 05°17' W 004°01'0 0.0
2017-Apr-06 00:38N 05°17' W 004°01'0 0.0
2017-Apr-06 00:29N 05°17' W 004°01'0 0.2
2017-Apr-06 00:00N 05°17' W 004°01'2 3.8
2017-Apr-05 23:30N 05°15' W 004°00'2 3.6
2017-Apr-05 22:58N 05°13' W 003°59'4 0.3
2017-Apr-05 08:57N 05°13' W 004°03'  
2017-Mar-31 22:06N 18°54' W 018°02'1213.7
2017-Mar-31 21:14N 19°06' W 018°03'514.1
2017-Mar-31 20:51N 19°12' W 018°03'514.1
2017-Mar-31 20:29N 19°17' W 018°03'714.3
2017-Mar-31 20:00N 19°24' W 018°03'51213.5
2017-Mar-30 06:09N 27°13' W 014°18'2514.5
2017-Mar-30 04:27N 27°31' W 014°00'1314.2
2017-Mar-30 03:33N 27°40' W 013°50'1614.2
2017-Mar-30 02:26N 27°51' W 013°36'1213.9
2017-Mar-30 01:33N 27°59' W 013°26'1513.9
2017-Mar-30 00:30N 28°11' W 013°18'1314.0
2017-Mar-29 23:33N 28°23' W 013°11'2814.0
2017-Mar-29 21:33N 28°48' W 012°56'1514.4
2017-Mar-29 20:31N 29°01' W 012°48'  

Dump ship's entire track history